sensor_id;sensor_type;location;lat;lon;timestamp;temperature;humidity
10443;DHT22;5269;51.146;16.986;2023-08-24T00:01:50;16.50;99.90
10443;DHT22;5269;51.146;16.986;2023-08-24T00:04:17;16.60;99.90
10443;DHT22;5269;51.146;16.986;2023-08-24T00:06:44;16.50;99.90
10443;DHT22;5269;51.146;16.986;2023-08-24T00:09:11;16.60;99.90
10443;DHT22;5269;51.146;16.986;2023-08-24T00:11:38;16.60;99.90
10443;DHT22;5269;51.146;16.986;2023-08-24T00:14:05;16.60;99.90
10443;DHT22;5269;51.146;16.986;2023-08-24T00:16:32;16.60;99.90
10443;DHT22;5269;51.146;16.986;2023-08-24T00:19:00;16.60;99.90
10443;DHT22;5269;51.146;16.986;2023-08-24T00:21:27;16.70;99.90
10443;DHT22;5269;51.146;16.986;2023-08-24T00:23:54;16.60;99.90
10443;DHT22;5269;51.146;16.986;2023-08-24T00:26:21;16.60;99.90
10443;DHT22;5269;51.146;16.986;2023-08-24T00:28:49;16.60;99.90
10443;DHT22;5269;51.146;16.986;2023-08-24T00:31:16;16.50;99.90
10443;DHT22;5269;51.146;16.986;2023-08-24T00:33:43;16.50;99.90
10443;DHT22;5269;51.146;16.986;2023-08-24T00:36:11;16.50;99.90
10443;DHT22;5269;51.146;16.986;2023-08-24T00:38:40;16.40;99.90
10443;DHT22;5269;51.146;16.986;2023-08-24T00:41:08;16.50;99.90
10443;DHT22;5269;51.146;16.986;2023-08-24T00:43:35;16.30;99.90
10443;DHT22;5269;51.146;16.986;2023-08-24T00:46:03;16.30;99.90
10443;DHT22;5269;51.146;16.986;2023-08-24T00:48:31;16.30;99.90
10443;DHT22;5269;51.146;16.986;2023-08-24T00:51:00;16.30;99.90
10443;DHT22;5269;51.146;16.986;2023-08-24T00:53:30;16.30;99.90
10443;DHT22;5269;51.146;16.986;2023-08-24T00:55:57;16.30;99.90
10443;DHT22;5269;51.146;16.986;2023-08-24T00:58:25;16.30;99.90
10443;DHT22;5269;51.146;16.986;2023-08-24T01:00:54;16.30;99.90
10443;DHT22;5269;51.146;16.986;2023-08-24T01:03:22;16.20;99.90
10443;DHT22;5269;51.146;16.986;2023-08-24T01:05:49;16.20;99.90
10443;DHT22;5269;51.146;16.986;2023-08-24T01:08:17;16.20;99.90
10443;DHT22;5269;51.146;16.986;2023-08-24T01:10:51;16.20;99.90
10443;DHT22;5269;51.146;16.986;2023-08-24T01:13:27;16.20;99.90
10443;DHT22;5269;51.146;16.986;2023-08-24T01:16:03;16.10;99.90
10443;DHT22;5269;51.146;16.986;2023-08-24T01:18:31;16.10;99.90
10443;DHT22;5269;51.146;16.986;2023-08-24T01:21:02;16.10;99.90
10443;DHT22;5269;51.146;16.986;2023-08-24T01:23:36;16.20;99.90
10443;DHT22;5269;51.146;16.986;2023-08-24T01:26:09;16.10;99.90
10443;DHT22;5269;51.146;16.986;2023-08-24T01:28:37;16.20;99.90
10443;DHT22;5269;51.146;16.986;2023-08-24T01:31:04;16.20;99.90
10443;DHT22;5269;51.146;16.986;2023-08-24T01:33:31;16.10;99.90
10443;DHT22;5269;51.146;16.986;2023-08-24T01:35:58;16.10;99.90
10443;DHT22;5269;51.146;16.986;2023-08-24T01:38:25;16.10;99.90
10443;DHT22;5269;51.146;16.986;2023-08-24T01:40:56;16.10;99.90
10443;DHT22;5269;51.146;16.986;2023-08-24T01:43:30;16.10;99.90
10443;DHT22;5269;51.146;16.986;2023-08-24T01:46:00;16.10;99.90
10443;DHT22;5269;51.146;16.986;2023-08-24T01:48:29;16.10;99.90
10443;DHT22;5269;51.146;16.986;2023-08-24T01:50:57;16.10;99.90
10443;DHT22;5269;51.146;16.986;2023-08-24T01:53:25;16.10;99.90
10443;DHT22;5269;51.146;16.986;2023-08-24T01:55:52;16.10;99.90
10443;DHT22;5269;51.146;16.986;2023-08-24T01:58:20;16.10;99.90
10443;DHT22;5269;51.146;16.986;2023-08-24T02:00:48;16.10;99.90
10443;DHT22;5269;51.146;16.986;2023-08-24T02:03:15;16.00;99.90
10443;DHT22;5269;51.146;16.986;2023-08-24T02:05:42;16.00;99.90
10443;DHT22;5269;51.146;16.986;2023-08-24T02:08:09;16.00;99.90
10443;DHT22;5269;51.146;16.986;2023-08-24T02:10:35;16.00;99.90
10443;DHT22;5269;51.146;16.986;2023-08-24T02:13:03;16.00;99.90
10443;DHT22;5269;51.146;16.986;2023-08-24T02:15:29;16.10;99.90
10443;DHT22;5269;51.146;16.986;2023-08-24T02:17:58;16.00;99.90
10443;DHT22;5269;51.146;16.986;2023-08-24T02:20:25;16.00;99.90
10443;DHT22;5269;51.146;16.986;2023-08-24T02:22:51;16.00;99.90
10443;DHT22;5269;51.146;16.986;2023-08-24T02:25:18;16.00;99.90
10443;DHT22;5269;51.146;16.986;2023-08-24T02:27:45;16.00;99.90
10443;DHT22;5269;51.146;16.986;2023-08-24T02:30:13;16.10;99.90
10443;DHT22;5269;51.146;16.986;2023-08-24T02:32:40;16.00;99.90
10443;DHT22;5269;51.146;16.986;2023-08-24T02:35:09;16.00;99.90
10443;DHT22;5269;51.146;16.986;2023-08-24T02:37:36;16.00;99.90
10443;DHT22;5269;51.146;16.986;2023-08-24T02:40:03;16.00;99.90
10443;DHT22;5269;51.146;16.986;2023-08-24T02:42:31;15.90;99.90
10443;DHT22;5269;51.146;16.986;2023-08-24T02:44:58;15.90;99.90
10443;DHT22;5269;51.146;16.986;2023-08-24T02:47:25;16.10;99.90
10443;DHT22;5269;51.146;16.986;2023-08-24T02:49:52;16.20;99.90
10443;DHT22;5269;51.146;16.986;2023-08-24T02:52:20;16.30;99.90
10443;DHT22;5269;51.146;16.986;2023-08-24T02:54:47;16.30;99.90
10443;DHT22;5269;51.146;16.986;2023-08-24T02:57:14;16.30;99.90
10443;DHT22;5269;51.146;16.986;2023-08-24T02:59:41;16.40;99.90
10443;DHT22;5269;51.146;16.986;2023-08-24T03:02:10;16.40;99.90
10443;DHT22;5269;51.146;16.986;2023-08-24T03:04:37;16.40;99.90
10443;DHT22;5269;51.146;16.986;2023-08-24T03:07:04;16.30;99.90
10443;DHT22;5269;51.146;16.986;2023-08-24T03:09:34;16.20;99.90
10443;DHT22;5269;51.146;16.986;2023-08-24T03:12:02;16.30;99.90
10443;DHT22;5269;51.146;16.986;2023-08-24T03:14:29;16.30;99.90
10443;DHT22;5269;51.146;16.986;2023-08-24T03:16:56;16.20;99.90
10443;DHT22;5269;51.146;16.986;2023-08-24T03:19:23;16.20;99.90
10443;DHT22;5269;51.146;16.986;2023-08-24T03:21:49;16.20;99.90
10443;DHT22;5269;51.146;16.986;2023-08-24T03:24:16;16.20;99.90
10443;DHT22;5269;51.146;16.986;2023-08-24T03:26:45;16.10;99.90
10443;DHT22;5269;51.146;16.986;2023-08-24T03:29:11;16.10;99.90
10443;DHT22;5269;51.146;16.986;2023-08-24T03:31:38;16.10;99.90
10443;DHT22;5269;51.146;16.986;2023-08-24T03:34:05;16.10;99.90
10443;DHT22;5269;51.146;16.986;2023-08-24T03:36:32;16.00;99.90
10443;DHT22;5269;51.146;16.986;2023-08-24T03:38:59;15.90;99.90
10443;DHT22;5269;51.146;16.986;2023-08-24T03:41:26;15.90;99.90
10443;DHT22;5269;51.146;16.986;2023-08-24T03:43:54;15.80;99.90
10443;DHT22;5269;51.146;16.986;2023-08-24T03:46:21;15.80;99.90
10443;DHT22;5269;51.146;16.986;2023-08-24T03:48:48;15.80;99.90
10443;DHT22;5269;51.146;16.986;2023-08-24T03:51:15;15.90;99.90
10443;DHT22;5269;51.146;16.986;2023-08-24T03:53:42;15.90;99.90
10443;DHT22;5269;51.146;16.986;2023-08-24T03:56:09;15.80;99.90
10443;DHT22;5269;51.146;16.986;2023-08-24T03:58:36;15.90;99.90
10443;DHT22;5269;51.146;16.986;2023-08-24T04:01:04;15.80;99.90
10443;DHT22;5269;51.146;16.986;2023-08-24T04:03:32;15.80;99.90
10443;DHT22;5269;51.146;16.986;2023-08-24T04:05:59;15.70;99.90
10443;DHT22;5269;51.146;16.986;2023-08-24T04:08:26;15.80;99.90
10443;DHT22;5269;51.146;16.986;2023-08-24T04:10:53;15.80;99.90
10443;DHT22;5269;51.146;16.986;2023-08-24T04:13:21;15.70;99.90
10443;DHT22;5269;51.146;16.986;2023-08-24T04:15:48;15.70;99.90
10443;DHT22;5269;51.146;16.986;2023-08-24T04:18:16;15.70;99.90
10443;DHT22;5269;51.146;16.986;2023-08-24T04:20:43;15.70;99.90
10443;DHT22;5269;51.146;16.986;2023-08-24T04:23:13;15.90;99.90
10443;DHT22;5269;51.146;16.986;2023-08-24T04:25:40;15.80;99.90
10443;DHT22;5269;51.146;16.986;2023-08-24T04:28:07;15.80;99.90
10443;DHT22;5269;51.146;16.986;2023-08-24T04:30:34;15.90;99.90
10443;DHT22;5269;51.146;16.986;2023-08-24T04:33:01;15.90;99.90
10443;DHT22;5269;51.146;16.986;2023-08-24T04:35:33;16.00;99.90
10443;DHT22;5269;51.146;16.986;2023-08-24T04:38:01;16.00;99.90
10443;DHT22;5269;51.146;16.986;2023-08-24T04:40:29;15.90;99.90
10443;DHT22;5269;51.146;16.986;2023-08-24T04:42:56;16.00;99.90
10443;DHT22;5269;51.146;16.986;2023-08-24T04:45:23;16.00;99.90
10443;DHT22;5269;51.146;16.986;2023-08-24T04:47:49;16.00;99.90
10443;DHT22;5269;51.146;16.986;2023-08-24T04:50:16;16.20;99.90
10443;DHT22;5269;51.146;16.986;2023-08-24T04:52:44;16.40;99.90
10443;DHT22;5269;51.146;16.986;2023-08-24T04:55:11;16.30;99.90
10443;DHT22;5269;51.146;16.986;2023-08-24T04:57:39;16.40;99.90
10443;DHT22;5269;51.146;16.986;2023-08-24T05:00:08;16.30;99.90
10443;DHT22;5269;51.146;16.986;2023-08-24T05:02:37;16.10;99.90
10443;DHT22;5269;51.146;16.986;2023-08-24T05:05:05;16.10;99.90
10443;DHT22;5269;51.146;16.986;2023-08-24T05:07:32;16.20;99.90
10443;DHT22;5269;51.146;16.986;2023-08-24T05:10:01;16.30;99.90
10443;DHT22;5269;51.146;16.986;2023-08-24T05:12:28;16.20;99.90
10443;DHT22;5269;51.146;16.986;2023-08-24T05:14:55;16.30;99.90
10443;DHT22;5269;51.146;16.986;2023-08-24T05:17:22;16.40;99.90
10443;DHT22;5269;51.146;16.986;2023-08-24T05:19:53;16.50;99.90
10443;DHT22;5269;51.146;16.986;2023-08-24T05:22:20;16.60;99.90
10443;DHT22;5269;51.146;16.986;2023-08-24T05:24:47;16.70;99.90
10443;DHT22;5269;51.146;16.986;2023-08-24T05:27:15;16.70;99.90
10443;DHT22;5269;51.146;16.986;2023-08-24T05:29:42;16.80;99.90
10443;DHT22;5269;51.146;16.986;2023-08-24T05:32:12;16.80;99.90
10443;DHT22;5269;51.146;16.986;2023-08-24T05:34:53;17.10;99.90
10443;DHT22;5269;51.146;16.986;2023-08-24T05:37:20;17.10;99.90
10443;DHT22;5269;51.146;16.986;2023-08-24T05:39:47;17.10;99.90
10443;DHT22;5269;51.146;16.986;2023-08-24T05:42:15;17.20;99.90
10443;DHT22;5269;51.146;16.986;2023-08-24T05:44:42;17.30;99.90
10443;DHT22;5269;51.146;16.986;2023-08-24T05:47:09;17.30;99.90
10443;DHT22;5269;51.146;16.986;2023-08-24T05:49:36;17.40;99.90
10443;DHT22;5269;51.146;16.986;2023-08-24T05:52:03;17.60;99.90
10443;DHT22;5269;51.146;16.986;2023-08-24T05:54:30;17.60;99.90
10443;DHT22;5269;51.146;16.986;2023-08-24T05:56:58;17.80;99.90
10443;DHT22;5269;51.146;16.986;2023-08-24T05:59:27;18.00;99.90
10443;DHT22;5269;51.146;16.986;2023-08-24T06:01:54;18.10;99.90
10443;DHT22;5269;51.146;16.986;2023-08-24T06:04:21;18.30;99.90
10443;DHT22;5269;51.146;16.986;2023-08-24T06:06:49;18.30;99.90
10443;DHT22;5269;51.146;16.986;2023-08-24T06:09:19;18.60;99.90
10443;DHT22;5269;51.146;16.986;2023-08-24T06:11:48;18.70;99.90
10443;DHT22;5269;51.146;16.986;2023-08-24T06:14:21;18.80;99.90
10443;DHT22;5269;51.146;16.986;2023-08-24T06:16:51;18.90;99.90
10443;DHT22;5269;51.146;16.986;2023-08-24T06:19:18;19.00;99.90
10443;DHT22;5269;51.146;16.986;2023-08-24T06:21:45;19.10;99.90
10443;DHT22;5269;51.146;16.986;2023-08-24T06:24:12;19.20;99.90
10443;DHT22;5269;51.146;16.986;2023-08-24T06:26:39;19.10;99.90
10443;DHT22;5269;51.146;16.986;2023-08-24T06:29:08;19.10;99.90
10443;DHT22;5269;51.146;16.986;2023-08-24T06:31:34;19.30;99.90
10443;DHT22;5269;51.146;16.986;2023-08-24T06:34:03;19.30;99.90
10443;DHT22;5269;51.146;16.986;2023-08-24T06:36:30;19.40;99.90
10443;DHT22;5269;51.146;16.986;2023-08-24T06:38:57;19.40;99.90
10443;DHT22;5269;51.146;16.986;2023-08-24T06:41:24;19.50;99.90
10443;DHT22;5269;51.146;16.986;2023-08-24T06:43:51;19.60;99.90
10443;DHT22;5269;51.146;16.986;2023-08-24T06:46:19;19.60;99.90
10443;DHT22;5269;51.146;16.986;2023-08-24T06:48:49;19.90;99.90
10443;DHT22;5269;51.146;16.986;2023-08-24T06:51:18;19.90;99.90
10443;DHT22;5269;51.146;16.986;2023-08-24T06:53:45;20.10;99.90
10443;DHT22;5269;51.146;16.986;2023-08-24T06:56:14;20.30;99.90
10443;DHT22;5269;51.146;16.986;2023-08-24T06:58:41;20.30;99.90
10443;DHT22;5269;51.146;16.986;2023-08-24T07:01:08;20.30;99.90
10443;DHT22;5269;51.146;16.986;2023-08-24T07:03:36;20.30;99.90
10443;DHT22;5269;51.146;16.986;2023-08-24T07:06:05;20.40;99.90
10443;DHT22;5269;51.146;16.986;2023-08-24T07:08:34;20.60;76.70
10443;DHT22;5269;51.146;16.986;2023-08-24T07:11:01;20.70;99.90
10443;DHT22;5269;51.146;16.986;2023-08-24T07:13:31;20.80;1.00
10443;DHT22;5269;51.146;16.986;2023-08-24T07:15:58;21.00;1.00
10443;DHT22;5269;51.146;16.986;2023-08-24T07:18:25;21.10;1.00
10443;DHT22;5269;51.146;16.986;2023-08-24T07:20:52;21.10;1.00
10443;DHT22;5269;51.146;16.986;2023-08-24T07:23:19;21.00;1.00
10443;DHT22;5269;51.146;16.986;2023-08-24T07:25:54;21.10;1.00
10443;DHT22;5269;51.146;16.986;2023-08-24T07:29:22;21.30;1.00
10443;DHT22;5269;51.146;16.986;2023-08-24T07:32:01;21.30;99.90
10443;DHT22;5269;51.146;16.986;2023-08-24T07:34:46;21.40;1.00
10443;DHT22;5269;51.146;16.986;2023-08-24T07:38:21;21.50;99.90
10443;DHT22;5269;51.146;16.986;2023-08-24T07:41:09;21.80;1.00
10443;DHT22;5269;51.146;16.986;2023-08-24T07:43:44;21.90;99.90
10443;DHT22;5269;51.146;16.986;2023-08-24T07:46:14;21.90;1.00
10443;DHT22;5269;51.146;16.986;2023-08-24T07:48:41;21.80;99.90
10443;DHT22;5269;51.146;16.986;2023-08-24T07:51:08;21.90;6.70
10443;DHT22;5269;51.146;16.986;2023-08-24T07:53:41;22.00;99.90
10443;DHT22;5269;51.146;16.986;2023-08-24T07:56:09;22.00;1.00
10443;DHT22;5269;51.146;16.986;2023-08-24T07:58:36;22.00;1.00
10443;DHT22;5269;51.146;16.986;2023-08-24T08:01:03;22.10;99.90
10443;DHT22;5269;51.146;16.986;2023-08-24T08:03:30;22.10;99.90
10443;DHT22;5269;51.146;16.986;2023-08-24T08:05:57;22.10;99.90
10443;DHT22;5269;51.146;16.986;2023-08-24T08:08:24;22.20;98.00
10443;DHT22;5269;51.146;16.986;2023-08-24T08:10:58;22.30;1.00
10443;DHT22;5269;51.146;16.986;2023-08-24T08:13:29;22.50;1.00
10443;DHT22;5269;51.146;16.986;2023-08-24T08:16:00;22.40;1.00
10443;DHT22;5269;51.146;16.986;2023-08-24T08:18:28;22.50;99.90
10443;DHT22;5269;51.146;16.986;2023-08-24T08:20:57;22.60;99.90
10443;DHT22;5269;51.146;16.986;2023-08-24T08:23:24;22.70;99.90
10443;DHT22;5269;51.146;16.986;2023-08-24T08:25:52;22.90;99.90
10443;DHT22;5269;51.146;16.986;2023-08-24T08:28:19;23.00;1.00
10443;DHT22;5269;51.146;16.986;2023-08-24T08:30:49;23.20;41.90
10443;DHT22;5269;51.146;16.986;2023-08-24T08:33:16;23.10;30.60
10443;DHT22;5269;51.146;16.986;2023-08-24T08:35:44;23.10;1.00
10443;DHT22;5269;51.146;16.986;2023-08-24T08:38:12;23.30;1.00
10443;DHT22;5269;51.146;16.986;2023-08-24T08:40:39;23.40;1.00
10443;DHT22;5269;51.146;16.986;2023-08-24T08:43:10;23.50;1.00
10443;DHT22;5269;51.146;16.986;2023-08-24T08:45:39;23.50;1.00
10443;DHT22;5269;51.146;16.986;2023-08-24T08:48:08;23.40;1.00
10443;DHT22;5269;51.146;16.986;2023-08-24T08:50:35;23.40;1.00
10443;DHT22;5269;51.146;16.986;2023-08-24T08:53:02;23.60;1.00
10443;DHT22;5269;51.146;16.986;2023-08-24T08:55:31;23.50;99.90
10443;DHT22;5269;51.146;16.986;2023-08-24T08:57:58;23.70;99.90
10443;DHT22;5269;51.146;16.986;2023-08-24T09:00:27;23.80;99.90
10443;DHT22;5269;51.146;16.986;2023-08-24T09:02:58;24.20;99.90
10443;DHT22;5269;51.146;16.986;2023-08-24T09:05:26;24.00;1.00
10443;DHT22;5269;51.146;16.986;2023-08-24T09:07:54;24.10;1.00
10443;DHT22;5269;51.146;16.986;2023-08-24T09:10:22;24.10;1.00
10443;DHT22;5269;51.146;16.986;2023-08-24T09:12:49;24.10;1.00
10443;DHT22;5269;51.146;16.986;2023-08-24T09:15:24;24.30;1.00
10443;DHT22;5269;51.146;16.986;2023-08-24T09:18:02;24.50;81.30
10443;DHT22;5269;51.146;16.986;2023-08-24T09:20:34;24.40;1.00
10443;DHT22;5269;51.146;16.986;2023-08-24T09:23:12;24.40;1.00
10443;DHT22;5269;51.146;16.986;2023-08-24T09:25:55;24.50;1.00
10443;DHT22;5269;51.146;16.986;2023-08-24T09:28:23;24.40;1.00
10443;DHT22;5269;51.146;16.986;2023-08-24T09:30:54;24.50;1.00
10443;DHT22;5269;51.146;16.986;2023-08-24T09:33:26;24.60;1.00
10443;DHT22;5269;51.146;16.986;2023-08-24T09:36:14;24.70;1.00
10443;DHT22;5269;51.146;16.986;2023-08-24T09:38:46;24.50;1.00
10443;DHT22;5269;51.146;16.986;2023-08-24T09:41:24;24.50;1.00
10443;DHT22;5269;51.146;16.986;2023-08-24T09:43:53;24.60;1.00
10443;DHT22;5269;51.146;16.986;2023-08-24T09:46:24;24.80;1.00
10443;DHT22;5269;51.146;16.986;2023-08-24T09:48:53;24.80;1.00
10443;DHT22;5269;51.146;16.986;2023-08-24T09:51:32;25.00;1.00
10443;DHT22;5269;51.146;16.986;2023-08-24T09:54:05;25.10;1.00
10443;DHT22;5269;51.146;16.986;2023-08-24T09:56:53;25.20;1.00
10443;DHT22;5269;51.146;16.986;2023-08-24T09:59:24;25.30;1.00
10443;DHT22;5269;51.146;16.986;2023-08-24T10:02:12;25.40;1.00
10443;DHT22;5269;51.146;16.986;2023-08-24T10:04:42;25.50;1.00
10443;DHT22;5269;51.146;16.986;2023-08-24T10:07:15;25.50;1.00
10443;DHT22;5269;51.146;16.986;2023-08-24T10:10:03;25.30;1.00
10443;DHT22;5269;51.146;16.986;2023-08-24T10:12:49;25.30;1.00
10443;DHT22;5269;51.146;16.986;2023-08-24T10:15:26;25.40;1.00
10443;DHT22;5269;51.146;16.986;2023-08-24T10:18:06;25.40;1.00
10443;DHT22;5269;51.146;16.986;2023-08-24T10:20:43;25.30;1.00
10443;DHT22;5269;51.146;16.986;2023-08-24T10:23:16;25.60;1.00
10443;DHT22;5269;51.146;16.986;2023-08-24T10:26:03;25.60;1.00
10443;DHT22;5269;51.146;16.986;2023-08-24T10:28:52;25.50;1.00
10443;DHT22;5269;51.146;16.986;2023-08-24T10:31:22;25.50;1.00
10443;DHT22;5269;51.146;16.986;2023-08-24T10:33:51;25.50;1.00
10443;DHT22;5269;51.146;16.986;2023-08-24T10:36:23;25.50;1.00
10443;DHT22;5269;51.146;16.986;2023-08-24T10:38:55;25.60;1.00
10443;DHT22;5269;51.146;16.986;2023-08-24T10:41:26;25.80;1.00
10443;DHT22;5269;51.146;16.986;2023-08-24T10:44:04;26.00;1.00
10443;DHT22;5269;51.146;16.986;2023-08-24T10:46:34;26.10;1.00
10443;DHT22;5269;51.146;16.986;2023-08-24T10:49:04;26.10;1.00
10443;DHT22;5269;51.146;16.986;2023-08-24T10:54:30;26.10;1.00
10443;DHT22;5269;51.146;16.986;2023-08-24T10:57:03;25.90;1.00
10443;DHT22;5269;51.146;16.986;2023-08-24T10:59:34;25.80;1.00
10443;DHT22;5269;51.146;16.986;2023-08-24T11:02:03;25.60;1.00
10443;DHT22;5269;51.146;16.986;2023-08-24T11:04:33;25.70;1.00
10443;DHT22;5269;51.146;16.986;2023-08-24T11:07:00;26.00;1.00
10443;DHT22;5269;51.146;16.986;2023-08-24T11:09:45;26.20;1.00
10443;DHT22;5269;51.146;16.986;2023-08-24T11:12:15;26.20;1.00
10443;DHT22;5269;51.146;16.986;2023-08-24T11:14:54;26.00;1.00
10443;DHT22;5269;51.146;16.986;2023-08-24T11:17:24;26.20;1.00
10443;DHT22;5269;51.146;16.986;2023-08-24T11:20:00;26.10;1.00
10443;DHT22;5269;51.146;16.986;2023-08-24T11:22:27;26.20;1.00
10443;DHT22;5269;51.146;16.986;2023-08-24T11:24:56;26.40;1.00
10443;DHT22;5269;51.146;16.986;2023-08-24T11:27:22;26.30;1.00
10443;DHT22;5269;51.146;16.986;2023-08-24T11:29:58;26.40;1.00
10443;DHT22;5269;51.146;16.986;2023-08-24T11:32:25;26.70;1.00
10443;DHT22;5269;51.146;16.986;2023-08-24T11:34:52;26.90;1.00
10443;DHT22;5269;51.146;16.986;2023-08-24T11:37:19;27.30;1.00
10443;DHT22;5269;51.146;16.986;2023-08-24T11:39:50;27.50;1.00
10443;DHT22;5269;51.146;16.986;2023-08-24T11:42:20;27.70;1.00
10443;DHT22;5269;51.146;16.986;2023-08-24T11:44:48;27.80;1.00
10443;DHT22;5269;51.146;16.986;2023-08-24T11:47:20;27.70;1.00
10443;DHT22;5269;51.146;16.986;2023-08-24T11:49:48;27.30;1.00
10443;DHT22;5269;51.146;16.986;2023-08-24T11:52:24;27.30;1.00
10443;DHT22;5269;51.146;16.986;2023-08-24T11:55:03;27.30;1.00
10443;DHT22;5269;51.146;16.986;2023-08-24T11:57:34;26.90;1.00
10443;DHT22;5269;51.146;16.986;2023-08-24T12:00:01;26.70;1.00
10443;DHT22;5269;51.146;16.986;2023-08-24T12:02:30;26.80;1.00
10443;DHT22;5269;51.146;16.986;2023-08-24T12:04:57;26.80;1.00
10443;DHT22;5269;51.146;16.986;2023-08-24T12:07:27;26.70;1.00
10443;DHT22;5269;51.146;16.986;2023-08-24T12:10:00;26.90;1.00
10443;DHT22;5269;51.146;16.986;2023-08-24T12:12:31;26.80;1.00
10443;DHT22;5269;51.146;16.986;2023-08-24T12:14:58;26.60;1.00
10443;DHT22;5269;51.146;16.986;2023-08-24T12:17:25;26.80;1.00
10443;DHT22;5269;51.146;16.986;2023-08-24T12:19:59;26.80;1.00
10443;DHT22;5269;51.146;16.986;2023-08-24T12:22:27;26.80;1.00
10443;DHT22;5269;51.146;16.986;2023-08-24T12:24:55;26.80;1.00
10443;DHT22;5269;51.146;16.986;2023-08-24T12:27:25;26.80;1.00
10443;DHT22;5269;51.146;16.986;2023-08-24T12:29:53;26.80;1.00
10443;DHT22;5269;51.146;16.986;2023-08-24T12:32:21;26.90;1.00
10443;DHT22;5269;51.146;16.986;2023-08-24T12:34:50;27.00;1.00
10443;DHT22;5269;51.146;16.986;2023-08-24T12:37:19;27.10;1.00
10443;DHT22;5269;51.146;16.986;2023-08-24T12:39:54;26.80;1.00
10443;DHT22;5269;51.146;16.986;2023-08-24T12:42:26;26.70;1.00
10443;DHT22;5269;51.146;16.986;2023-08-24T12:45:14;26.80;1.00
10443;DHT22;5269;51.146;16.986;2023-08-24T12:47:41;26.50;1.00
10443;DHT22;5269;51.146;16.986;2023-08-24T12:50:12;26.60;1.00
10443;DHT22;5269;51.146;16.986;2023-08-24T12:52:42;26.50;1.00
10443;DHT22;5269;51.146;16.986;2023-08-24T12:55:09;26.50;1.00
10443;DHT22;5269;51.146;16.986;2023-08-24T12:57:40;26.70;1.00
10443;DHT22;5269;51.146;16.986;2023-08-24T13:00:14;26.70;1.00
10443;DHT22;5269;51.146;16.986;2023-08-24T13:03:00;26.60;1.00
10443;DHT22;5269;51.146;16.986;2023-08-24T13:05:33;26.80;1.00
10443;DHT22;5269;51.146;16.986;2023-08-24T13:08:03;26.90;1.00
10443;DHT22;5269;51.146;16.986;2023-08-24T13:10:41;26.90;1.00
10443;DHT22;5269;51.146;16.986;2023-08-24T13:13:12;26.90;1.00
10443;DHT22;5269;51.146;16.986;2023-08-24T13:15:42;26.80;1.00
10443;DHT22;5269;51.146;16.986;2023-08-24T13:18:12;26.50;1.00
10443;DHT22;5269;51.146;16.986;2023-08-24T13:20:41;26.40;1.00
10443;DHT22;5269;51.146;16.986;2023-08-24T13:23:17;26.50;1.00
10443;DHT22;5269;51.146;16.986;2023-08-24T13:25:58;26.60;1.00
10443;DHT22;5269;51.146;16.986;2023-08-24T13:28:32;26.70;1.00
10443;DHT22;5269;51.146;16.986;2023-08-24T13:31:04;26.50;1.00
10443;DHT22;5269;51.146;16.986;2023-08-24T13:33:42;26.60;1.00
10443;DHT22;5269;51.146;16.986;2023-08-24T13:36:17;26.80;1.00
10443;DHT22;5269;51.146;16.986;2023-08-24T13:38:46;26.80;1.00
10443;DHT22;5269;51.146;16.986;2023-08-24T13:41:20;26.90;1.00
10443;DHT22;5269;51.146;16.986;2023-08-24T13:43:47;27.00;1.00
10443;DHT22;5269;51.146;16.986;2023-08-24T13:46:24;27.10;1.00
10443;DHT22;5269;51.146;16.986;2023-08-24T13:48:51;27.10;1.00
10443;DHT22;5269;51.146;16.986;2023-08-24T13:51:18;27.30;1.00
10443;DHT22;5269;51.146;16.986;2023-08-24T13:53:45;27.30;1.00
10443;DHT22;5269;51.146;16.986;2023-08-24T13:56:12;27.50;1.00
10443;DHT22;5269;51.146;16.986;2023-08-24T13:58:39;27.50;1.00
10443;DHT22;5269;51.146;16.986;2023-08-24T14:01:06;27.60;1.00
10443;DHT22;5269;51.146;16.986;2023-08-24T14:03:38;27.80;1.00
10443;DHT22;5269;51.146;16.986;2023-08-24T14:06:05;27.90;1.00
10443;DHT22;5269;51.146;16.986;2023-08-24T14:08:32;27.90;1.00
10443;DHT22;5269;51.146;16.986;2023-08-24T14:10:59;27.80;1.00
10443;DHT22;5269;51.146;16.986;2023-08-24T14:13:26;28.10;1.00
10443;DHT22;5269;51.146;16.986;2023-08-24T14:15:56;28.20;1.00
10443;DHT22;5269;51.146;16.986;2023-08-24T14:18:23;28.00;1.00
10443;DHT22;5269;51.146;16.986;2023-08-24T14:20:51;27.60;1.00
10443;DHT22;5269;51.146;16.986;2023-08-24T14:23:19;27.90;1.00
10443;DHT22;5269;51.146;16.986;2023-08-24T14:25:46;28.20;1.00
10443;DHT22;5269;51.146;16.986;2023-08-24T14:28:18;28.40;1.00
10443;DHT22;5269;51.146;16.986;2023-08-24T14:30:45;28.50;1.00
10443;DHT22;5269;51.146;16.986;2023-08-24T14:33:14;28.60;1.00
10443;DHT22;5269;51.146;16.986;2023-08-24T14:35:42;28.20;1.00
10443;DHT22;5269;51.146;16.986;2023-08-24T14:38:17;28.30;1.00
10443;DHT22;5269;51.146;16.986;2023-08-24T14:40:43;28.60;1.00
10443;DHT22;5269;51.146;16.986;2023-08-24T14:43:10;28.80;1.00
10443;DHT22;5269;51.146;16.986;2023-08-24T14:45:37;28.90;1.00
10443;DHT22;5269;51.146;16.986;2023-08-24T14:48:05;29.10;1.00
10443;DHT22;5269;51.146;16.986;2023-08-24T14:50:32;29.00;1.00
10443;DHT22;5269;51.146;16.986;2023-08-24T14:52:58;29.30;1.00
10443;DHT22;5269;51.146;16.986;2023-08-24T14:55:29;29.40;1.00
10443;DHT22;5269;51.146;16.986;2023-08-24T14:57:56;29.40;1.00
10443;DHT22;5269;51.146;16.986;2023-08-24T15:00:25;29.30;1.00
10443;DHT22;5269;51.146;16.986;2023-08-24T15:02:52;29.30;1.00
10443;DHT22;5269;51.146;16.986;2023-08-24T15:05:19;29.40;1.00
10443;DHT22;5269;51.146;16.986;2023-08-24T15:07:47;29.40;1.00
10443;DHT22;5269;51.146;16.986;2023-08-24T15:10:18;29.50;1.00
10443;DHT22;5269;51.146;16.986;2023-08-24T15:12:53;29.60;1.00
10443;DHT22;5269;51.146;16.986;2023-08-24T15:15:26;29.60;1.00
10443;DHT22;5269;51.146;16.986;2023-08-24T15:17:58;29.60;1.00
10443;DHT22;5269;51.146;16.986;2023-08-24T15:20:25;29.80;1.00
10443;DHT22;5269;51.146;16.986;2023-08-24T15:22:52;29.90;1.00
10443;DHT22;5269;51.146;16.986;2023-08-24T15:25:19;30.10;1.00
10443;DHT22;5269;51.146;16.986;2023-08-24T15:27:47;30.20;1.00
10443;DHT22;5269;51.146;16.986;2023-08-24T15:30:20;30.20;1.00
10443;DHT22;5269;51.146;16.986;2023-08-24T15:32:52;30.40;1.00
10443;DHT22;5269;51.146;16.986;2023-08-24T15:35:21;30.60;1.00
10443;DHT22;5269;51.146;16.986;2023-08-24T15:37:53;30.60;1.00
10443;DHT22;5269;51.146;16.986;2023-08-24T15:40:20;30.60;1.00
10443;DHT22;5269;51.146;16.986;2023-08-24T15:42:53;30.50;1.00
10443;DHT22;5269;51.146;16.986;2023-08-24T15:45:24;30.40;1.00
10443;DHT22;5269;51.146;16.986;2023-08-24T15:47:52;30.40;1.00
10443;DHT22;5269;51.146;16.986;2023-08-24T15:50:21;30.30;1.00
10443;DHT22;5269;51.146;16.986;2023-08-24T15:52:49;30.50;1.00
10443;DHT22;5269;51.146;16.986;2023-08-24T15:55:16;30.50;1.00
10443;DHT22;5269;51.146;16.986;2023-08-24T15:57:43;30.40;1.00